VOI1050 MMGL-MMUN
Flight info
| Callsign | VOI1050 |
|---|---|
| Flight time | 2h 13m |
| Altitude | 39000 |
| Route | FEISE1B FEISE J25 SLP UT147 TMN DCT RAULS UT23 LIDAM DCT PERGO DCT XUDUN XUDUN1A |
| Aircraft | A21N/M-SDE2E3FGHIRWXY/LB1 |
Departure
| Time | 2026-05-05 02:52 |
|---|---|
| Airport | Guadalajara International Airport (MMGL) |
Arrival
| Time | 2026-05-05 05:05 |
|---|---|
| Airport | Cancún International Airport (MMUN) |
| Time | Latitude | Longitude | Altitude | Speed | Heading |
|---|---|---|---|---|---|
| 2026-05-05 02:29 | 20.52423 | -103.30077 | 5023 ft | 0 kts | 19° |
| 2026-05-05 02:40 | 20.52411 | -103.30081 | 5021 ft | 3 kts | 19° |
| 2026-05-05 02:40 | 20.52394 | -103.30088 | 5020 ft | 3 kts | 47° |
| 2026-05-05 02:40 | 20.52388 | -103.30106 | 5018 ft | 2 kts | 104° |
| 2026-05-05 02:40 | 20.52388 | -103.30107 | 5019 ft | 0 kts | 104° |
| 2026-05-05 02:44 | 20.52388 | -103.30105 | 5018 ft | 0 kts | 105° |
| 2026-05-05 02:44 | 20.52387 | -103.30103 | 5018 ft | 0 kts | 107° |
| 2026-05-05 02:44 | 20.52386 | -103.30101 | 5018 ft | 1 kts | 109° |
| 2026-05-05 02:44 | 20.52371 | -103.30070 | 5022 ft | 7 kts | 121° |
| 2026-05-05 02:45 | 20.52345 | -103.30033 | 5023 ft | 6 kts | 147° |
| 2026-05-05 02:45 | 20.52310 | -103.30031 | 5023 ft | 5 kts | 194° |
| 2026-05-05 02:45 | 20.52279 | -103.30040 | 5023 ft | 4 kts | 199° |
| 2026-05-05 02:45 | 20.52252 | -103.30051 | 5023 ft | 4 kts | 200° |
| 2026-05-05 02:46 | 20.52222 | -103.30063 | 5023 ft | 5 kts | 201° |
| 2026-05-05 02:46 | 20.52185 | -103.30077 | 5023 ft | 6 kts | 200° |
| 2026-05-05 02:46 | 20.52141 | -103.30077 | 5022 ft | 7 kts | 154° |
| 2026-05-05 02:46 | 20.52112 | -103.30034 | 5022 ft | 9 kts | 110° |
| 2026-05-05 02:47 | 20.52088 | -103.29954 | 5020 ft | 12 kts | 109° |
| 2026-05-05 02:47 | 20.52062 | -103.29871 | 5022 ft | 12 kts | 107° |
| 2026-05-05 02:47 | 20.52045 | -103.29790 | 5022 ft | 11 kts | 101° |
| 2026-05-05 02:47 | 20.52029 | -103.29711 | 5022 ft | 10 kts | 107° |
| 2026-05-05 02:48 | 20.52003 | -103.29642 | 5022 ft | 10 kts | 113° |
| 2026-05-05 02:48 | 20.51975 | -103.29576 | 5022 ft | 9 kts | 117° |
| 2026-05-05 02:48 | 20.51939 | -103.29518 | 5022 ft | 9 kts | 127° |
| 2026-05-05 02:48 | 20.51902 | -103.29466 | 5020 ft | 9 kts | 127° |
| 2026-05-05 02:49 | 20.51856 | -103.29402 | 5021 ft | 12 kts | 127° |
| 2026-05-05 02:49 | 20.51798 | -103.29320 | 5022 ft | 15 kts | 126° |
| 2026-05-05 02:49 | 20.51732 | -103.29224 | 5022 ft | 14 kts | 126° |
| 2026-05-05 02:49 | 20.51689 | -103.29174 | 5021 ft | 10 kts | 149° |
| 2026-05-05 02:50 | 20.51616 | -103.29181 | 5021 ft | 12 kts | 200° |
| 2026-05-05 02:50 | 20.51530 | -103.29220 | 5020 ft | 15 kts | 203° |
| 2026-05-05 02:50 | 20.51478 | -103.29244 | 5018 ft | 6 kts | 204° |
| 2026-05-05 02:50 | 20.51431 | -103.29274 | 5019 ft | 9 kts | 233° |
| 2026-05-05 02:51 | 20.51436 | -103.29336 | 5015 ft | 13 kts | 293° |
| 2026-05-05 02:51 | 20.51544 | -103.29594 | 5015 ft | 64 kts | 294° |
| 2026-05-05 02:51 | 20.51801 | -103.30203 | 5022 ft | 117 kts | 294° |
| 2026-05-05 02:51 | 20.52208 | -103.31172 | 5028 ft | 164 kts | 294° |
| 2026-05-05 02:52 | 20.52684 | -103.32264 | 5505 ft | 163 kts | 293° |
| 2026-05-05 02:52 | 20.53237 | -103.33385 | 5828 ft | 179 kts | 294° |
| 2026-05-05 02:52 | 20.53824 | -103.34593 | 6190 ft | 183 kts | 296° |
| 2026-05-05 02:52 | 20.54346 | -103.35809 | 6679 ft | 181 kts | 292° |
| 2026-05-05 02:53 | 20.54833 | -103.37114 | 6915 ft | 199 kts | 291° |
| 2026-05-05 02:53 | 20.55384 | -103.38553 | 7119 ft | 218 kts | 291° |
| 2026-05-05 02:53 | 20.56000 | -103.40100 | 7428 ft | 232 kts | 293° |
| 2026-05-05 02:53 | 20.56690 | -103.41692 | 7867 ft | 244 kts | 298° |
| 2026-05-05 02:54 | 20.57791 | -103.43169 | 8138 ft | 267 kts | 318° |
| 2026-05-05 02:54 | 20.59493 | -103.44078 | 8538 ft | 285 kts | 347° |
| 2026-05-05 02:54 | 20.61499 | -103.43901 | 9070 ft | 298 kts | 21° |
| 2026-05-05 02:54 | 20.63178 | -103.42603 | 9651 ft | 305 kts | 52° |
| 2026-05-05 02:55 | 20.64240 | -103.40650 | 10210 ft | 312 kts | 64° |
| 2026-05-05 02:55 | 20.65178 | -103.38493 | 10467 ft | 329 kts | 65° |
| 2026-05-05 02:55 | 20.66180 | -103.36223 | 10685 ft | 346 kts | 64° |
| 2026-05-05 02:55 | 20.67257 | -103.33890 | 10886 ft | 361 kts | 63° |
| 2026-05-05 02:56 | 20.68414 | -103.31459 | 11179 ft | 370 kts | 63° |
| 2026-05-05 02:56 | 20.69598 | -103.29011 | 11625 ft | 374 kts | 63° |
| 2026-05-05 02:56 | 20.70804 | -103.26535 | 12094 ft | 376 kts | 63° |
| 2026-05-05 02:56 | 20.72019 | -103.24049 | 12608 ft | 378 kts | 63° |
| 2026-05-05 02:57 | 20.73239 | -103.21559 | 13158 ft | 378 kts | 63° |
| 2026-05-05 02:57 | 20.74467 | -103.19057 | 13711 ft | 380 kts | 63° |
| 2026-05-05 02:57 | 20.75281 | -103.17397 | 14048 ft | 380 kts | 63° |
| 2026-05-05 02:57 | 20.76910 | -103.14077 | 14693 ft | 382 kts | 63° |
| 2026-05-05 02:58 | 20.78147 | -103.11555 | 15141 ft | 383 kts | 63° |
| 2026-05-05 02:58 | 20.78980 | -103.09855 | 15517 ft | 383 kts | 63° |
| 2026-05-05 02:58 | 20.80219 | -103.07327 | 16038 ft | 385 kts | 63° |
| 2026-05-05 02:58 | 20.81864 | -103.03967 | 16718 ft | 385 kts | 63° |
| 2026-05-05 02:59 | 20.83115 | -103.01412 | 17160 ft | 388 kts | 63° |
| 2026-05-05 02:59 | 20.83946 | -102.99713 | 17462 ft | 389 kts | 63° |
| 2026-05-05 02:59 | 20.85203 | -102.97140 | 17858 ft | 392 kts | 63° |
| 2026-05-05 02:59 | 20.86471 | -102.94548 | 18255 ft | 393 kts | 63° |
| 2026-05-05 03:00 | 20.88162 | -102.91087 | 18659 ft | 398 kts | 63° |
| 2026-05-05 03:00 | 20.89024 | -102.89320 | 18867 ft | 398 kts | 63° |
| 2026-05-05 03:00 | 20.90316 | -102.86674 | 19134 ft | 401 kts | 63° |
| 2026-05-05 03:00 | 20.91611 | -102.84019 | 19419 ft | 403 kts | 63° |
| 2026-05-05 03:01 | 20.92912 | -102.81352 | 19620 ft | 406 kts | 63° |
| 2026-05-05 03:01 | 20.94206 | -102.78697 | 19836 ft | 409 kts | 63° |
| 2026-05-05 03:01 | 20.95526 | -102.75987 | 20036 ft | 411 kts | 63° |
| 2026-05-05 03:01 | 20.96849 | -102.73271 | 20240 ft | 414 kts | 63° |
| 2026-05-05 03:02 | 20.98181 | -102.70534 | 20481 ft | 415 kts | 63° |
| 2026-05-05 03:02 | 20.99537 | -102.67790 | 20691 ft | 418 kts | 60° |
| 2026-05-05 03:02 | 21.01109 | -102.65159 | 20937 ft | 420 kts | 55° |
| 2026-05-05 03:02 | 21.02838 | -102.62621 | 21164 ft | 422 kts | 53° |
| 2026-05-05 03:03 | 21.04638 | -102.60151 | 21393 ft | 425 kts | 51° |
| 2026-05-05 03:03 | 21.06494 | -102.57674 | 21638 ft | 427 kts | 51° |
| 2026-05-05 03:03 | 21.08365 | -102.55192 | 21872 ft | 429 kts | 51° |
| 2026-05-05 03:03 | 21.10236 | -102.52698 | 22110 ft | 431 kts | 51° |
| 2026-05-05 03:04 | 21.12113 | -102.50175 | 22361 ft | 434 kts | 51° |
| 2026-05-05 03:04 | 21.13988 | -102.47635 | 22589 ft | 436 kts | 52° |
| 2026-05-05 03:04 | 21.15869 | -102.45075 | 22809 ft | 439 kts | 52° |
| 2026-05-05 03:04 | 21.17755 | -102.42499 | 23050 ft | 441 kts | 52° |
| 2026-05-05 03:05 | 21.19648 | -102.39910 | 23282 ft | 442 kts | 51° |
| 2026-05-05 03:05 | 21.21536 | -102.37327 | 23481 ft | 445 kts | 51° |
| 2026-05-05 03:05 | 21.23449 | -102.34711 | 23686 ft | 447 kts | 51° |
| 2026-05-05 03:05 | 21.25372 | -102.32079 | 23884 ft | 448 kts | 51° |
| 2026-05-05 03:06 | 21.27298 | -102.29440 | 24085 ft | 449 kts | 51° |
| 2026-05-05 03:06 | 21.29223 | -102.26803 | 24324 ft | 450 kts | 51° |
| 2026-05-05 03:06 | 21.31159 | -102.24150 | 24574 ft | 451 kts | 51° |
| 2026-05-05 03:06 | 21.33097 | -102.21492 | 24809 ft | 453 kts | 50° |
| 2026-05-05 03:07 | 21.35043 | -102.18822 | 25091 ft | 454 kts | 51° |
| 2026-05-05 03:07 | 21.36994 | -102.16142 | 25355 ft | 456 kts | 50° |
| 2026-05-05 03:07 | 21.38927 | -102.13485 | 25644 ft | 458 kts | 50° |
| 2026-05-05 03:07 | 21.40889 | -102.10787 | 25937 ft | 459 kts | 50° |
| 2026-05-05 03:08 | 21.42861 | -102.08074 | 26205 ft | 462 kts | 51° |
| 2026-05-05 03:08 | 21.44846 | -102.05344 | 26474 ft | 463 kts | 50° |
| 2026-05-05 03:08 | 21.46830 | -102.02614 | 26793 ft | 464 kts | 51° |
| 2026-05-05 03:08 | 21.48819 | -101.99877 | 27065 ft | 465 kts | 51° |
| 2026-05-05 03:09 | 21.50814 | -101.97132 | 27327 ft | 467 kts | 50° |
| 2026-05-05 03:09 | 21.52819 | -101.94371 | 27575 ft | 469 kts | 50° |
| 2026-05-05 03:09 | 21.54834 | -101.91596 | 27813 ft | 471 kts | 51° |
| 2026-05-05 03:09 | 21.56825 | -101.88849 | 28053 ft | 473 kts | 51° |
| 2026-05-05 03:10 | 21.58851 | -101.86054 | 28293 ft | 474 kts | 51° |
| 2026-05-05 03:10 | 21.60887 | -101.83243 | 28592 ft | 475 kts | 51° |
| 2026-05-05 03:10 | 21.62912 | -101.80445 | 28932 ft | 473 kts | 51° |
| 2026-05-05 03:10 | 21.64935 | -101.77649 | 29274 ft | 473 kts | 51° |
| 2026-05-05 03:11 | 21.66953 | -101.74857 | 29607 ft | 472 kts | 51° |
| 2026-05-05 03:11 | 21.68946 | -101.72099 | 29927 ft | 472 kts | 51° |
| 2026-05-05 03:11 | 21.70966 | -101.69303 | 30218 ft | 471 kts | 51° |
| 2026-05-05 03:11 | 21.72978 | -101.66516 | 30465 ft | 472 kts | 50° |
| 2026-05-05 03:12 | 21.74994 | -101.63723 | 30682 ft | 473 kts | 50° |
| 2026-05-05 03:12 | 21.77012 | -101.60924 | 30957 ft | 472 kts | 51° |
| 2026-05-05 03:12 | 21.79022 | -101.58137 | 31221 ft | 471 kts | 51° |
| 2026-05-05 03:12 | 21.81035 | -101.55343 | 31488 ft | 471 kts | 51° |
| 2026-05-05 03:13 | 21.83018 | -101.52591 | 31767 ft | 471 kts | 51° |
| 2026-05-05 03:13 | 21.85020 | -101.49809 | 32033 ft | 470 kts | 51° |
| 2026-05-05 03:13 | 21.87026 | -101.47019 | 32292 ft | 470 kts | 51° |
| 2026-05-05 03:13 | 21.89030 | -101.44232 | 32550 ft | 470 kts | 51° |
| 2026-05-05 03:14 | 21.91028 | -101.41449 | 32811 ft | 469 kts | 51° |
| 2026-05-05 03:14 | 21.93029 | -101.38662 | 33059 ft | 469 kts | 51° |
| 2026-05-05 03:14 | 21.95021 | -101.35887 | 33309 ft | 469 kts | 51° |
| 2026-05-05 03:14 | 21.97022 | -101.33097 | 33555 ft | 469 kts | 51° |
| 2026-05-05 03:15 | 21.98991 | -101.30351 | 33807 ft | 468 kts | 51° |
| 2026-05-05 03:15 | 22.00980 | -101.27576 | 34020 ft | 468 kts | 51° |
| 2026-05-05 03:15 | 22.02974 | -101.24792 | 34239 ft | 468 kts | 51° |
| 2026-05-05 03:15 | 22.04961 | -101.22017 | 34474 ft | 467 kts | 51° |
| 2026-05-05 03:16 | 22.06946 | -101.19242 | 34740 ft | 466 kts | 51° |
| 2026-05-05 03:16 | 22.08929 | -101.16469 | 34946 ft | 467 kts | 51° |
| 2026-05-05 03:16 | 22.10912 | -101.13696 | 35116 ft | 468 kts | 51° |
| 2026-05-05 03:16 | 22.12902 | -101.10910 | 35340 ft | 467 kts | 51° |
| 2026-05-05 03:17 | 22.14857 | -101.08172 | 35596 ft | 466 kts | 51° |
| 2026-05-05 03:17 | 22.16831 | -101.05406 | 35835 ft | 465 kts | 51° |
| 2026-05-05 03:17 | 22.18803 | -101.02643 | 36069 ft | 464 kts | 50° |
| 2026-05-05 03:17 | 22.20768 | -100.99880 | 36262 ft | 463 kts | 52° |
| 2026-05-05 03:18 | 22.22529 | -100.96959 | 36417 ft | 465 kts | 60° |
| 2026-05-05 03:18 | 22.23871 | -100.93784 | 36566 ft | 466 kts | 70° |
| 2026-05-05 03:18 | 22.24704 | -100.90386 | 36705 ft | 468 kts | 80° |
| 2026-05-05 03:18 | 22.24957 | -100.86887 | 36830 ft | 469 kts | 91° |
| 2026-05-05 03:19 | 22.24505 | -100.79871 | 37096 ft | 469 kts | 95° |
| 2026-05-05 03:19 | 22.24153 | -100.76420 | 37207 ft | 468 kts | 96° |
| 2026-05-05 03:19 | 22.23776 | -100.72933 | 37329 ft | 468 kts | 96° |
| 2026-05-05 03:20 | 22.23031 | -100.65952 | 37550 ft | 467 kts | 96° |
| 2026-05-05 03:20 | 22.22325 | -100.58983 | 37717 ft | 468 kts | 95° |
| 2026-05-05 03:21 | 22.21636 | -100.51993 | 37962 ft | 466 kts | 95° |
| 2026-05-05 03:21 | 22.20950 | -100.45024 | 38083 ft | 468 kts | 95° |
| 2026-05-05 03:22 | 22.20257 | -100.38039 | 38247 ft | 469 kts | 95° |
| 2026-05-05 03:22 | 22.19563 | -100.31078 | 38395 ft | 470 kts | 95° |
| 2026-05-05 03:23 | 22.18858 | -100.24050 | 38527 ft | 471 kts | 95° |
| 2026-05-05 03:23 | 22.18150 | -100.17025 | 38626 ft | 472 kts | 95° |
| 2026-05-05 03:24 | 22.17435 | -100.09959 | 38726 ft | 474 kts | 95° |
| 2026-05-05 03:24 | 22.16716 | -100.02879 | 38835 ft | 474 kts | 95° |
| 2026-05-05 03:25 | 22.15995 | -99.95800 | 38921 ft | 475 kts | 95° |
| 2026-05-05 03:25 | 22.15269 | -99.88701 | 38972 ft | 477 kts | 95° |
| 2026-05-05 03:26 | 22.14539 | -99.81598 | 38987 ft | 475 kts | 95° |
| 2026-05-05 03:26 | 22.13807 | -99.74507 | 38989 ft | 476 kts | 95° |
| 2026-05-05 03:27 | 22.13077 | -99.67458 | 38984 ft | 476 kts | 95° |
| 2026-05-05 03:27 | 22.12339 | -99.60364 | 38990 ft | 476 kts | 95° |
| 2026-05-05 03:28 | 22.11597 | -99.53262 | 38964 ft | 476 kts | 95° |
| 2026-05-05 03:28 | 22.10853 | -99.46178 | 38974 ft | 476 kts | 95° |
| 2026-05-05 03:29 | 22.10105 | -99.39081 | 38982 ft | 474 kts | 95° |
| 2026-05-05 03:29 | 22.09357 | -99.32018 | 38966 ft | 473 kts | 95° |
| 2026-05-05 03:30 | 22.08612 | -99.25004 | 38960 ft | 474 kts | 95° |
| 2026-05-05 03:30 | 22.07859 | -99.17944 | 38954 ft | 474 kts | 95° |
| 2026-05-05 03:31 | 22.07103 | -99.10889 | 38946 ft | 473 kts | 95° |
| 2026-05-05 03:31 | 22.06343 | -99.03828 | 38931 ft | 473 kts | 95° |
| 2026-05-05 03:32 | 22.05581 | -98.96774 | 38928 ft | 473 kts | 95° |
| 2026-05-05 03:32 | 22.04817 | -98.89722 | 38925 ft | 474 kts | 95° |
| 2026-05-05 03:33 | 22.04066 | -98.82675 | 38918 ft | 473 kts | 91° |
| 2026-05-05 03:33 | 22.04131 | -98.75661 | 38927 ft | 470 kts | 85° |
| 2026-05-05 03:34 | 22.04493 | -98.68624 | 38928 ft | 470 kts | 83° |
| 2026-05-05 03:34 | 22.04914 | -98.61581 | 38913 ft | 470 kts | 83° |
| 2026-05-05 03:35 | 22.05323 | -98.54578 | 38913 ft | 470 kts | 84° |
| 2026-05-05 03:35 | 22.05719 | -98.47534 | 38924 ft | 470 kts | 84° |
| 2026-05-05 03:36 | 22.06107 | -98.40483 | 38928 ft | 470 kts | 84° |
| 2026-05-05 03:36 | 22.06490 | -98.33444 | 38923 ft | 470 kts | 84° |
| 2026-05-05 03:37 | 22.06871 | -98.26403 | 38926 ft | 470 kts | 83° |
| 2026-05-05 03:37 | 22.07247 | -98.19404 | 38925 ft | 471 kts | 84° |
| 2026-05-05 03:38 | 22.07623 | -98.12356 | 38924 ft | 471 kts | 84° |
| 2026-05-05 03:38 | 22.07996 | -98.05310 | 38925 ft | 470 kts | 84° |
| 2026-05-05 03:39 | 22.08365 | -97.98260 | 38933 ft | 470 kts | 84° |
| 2026-05-05 03:39 | 22.08731 | -97.91216 | 38928 ft | 470 kts | 83° |
| 2026-05-05 03:40 | 22.09093 | -97.84217 | 38929 ft | 471 kts | 83° |
| 2026-05-05 03:40 | 22.09453 | -97.77172 | 38929 ft | 470 kts | 83° |
| 2026-05-05 03:41 | 22.09811 | -97.70125 | 38929 ft | 470 kts | 83° |
| 2026-05-05 03:41 | 22.10165 | -97.63074 | 38929 ft | 470 kts | 83° |
| 2026-05-05 03:42 | 22.10517 | -97.56027 | 38925 ft | 471 kts | 83° |
| 2026-05-05 03:42 | 22.10866 | -97.48977 | 38926 ft | 472 kts | 83° |
| 2026-05-05 03:43 | 22.11213 | -97.41900 | 38927 ft | 472 kts | 83° |
| 2026-05-05 03:43 | 22.11557 | -97.34824 | 38927 ft | 472 kts | 83° |
| 2026-05-05 03:44 | 22.11897 | -97.27751 | 38927 ft | 472 kts | 83° |
| 2026-05-05 03:44 | 22.12177 | -97.21878 | 38927 ft | 472 kts | 83° |
| 2026-05-05 03:45 | 22.12565 | -97.13673 | 38929 ft | 472 kts | 83° |
| 2026-05-05 03:45 | 22.12843 | -97.07754 | 38932 ft | 472 kts | 83° |
| 2026-05-05 03:46 | 22.13169 | -97.00728 | 38931 ft | 472 kts | 83° |
| 2026-05-05 03:46 | 22.13495 | -96.93661 | 38931 ft | 472 kts | 83° |
| 2026-05-05 03:47 | 22.13817 | -96.86593 | 38927 ft | 472 kts | 83° |
| 2026-05-05 03:47 | 22.14136 | -96.79530 | 38928 ft | 472 kts | 83° |
| 2026-05-05 03:48 | 22.14453 | -96.72453 | 38930 ft | 472 kts | 83° |
| 2026-05-05 03:48 | 22.14767 | -96.65370 | 38933 ft | 472 kts | 83° |
| 2026-05-05 03:49 | 22.15078 | -96.58301 | 38930 ft | 472 kts | 83° |
| 2026-05-05 03:49 | 22.14959 | -96.51262 | 38934 ft | 475 kts | 91° |
| 2026-05-05 03:50 | 22.14279 | -96.44148 | 38934 ft | 477 kts | 93° |
| 2026-05-05 03:50 | 22.13491 | -96.37031 | 38933 ft | 479 kts | 93° |
| 2026-05-05 03:51 | 22.12688 | -96.29882 | 38933 ft | 480 kts | 93° |
| 2026-05-05 03:51 | 22.11896 | -96.22741 | 38936 ft | 479 kts | 93° |
| 2026-05-05 03:52 | 22.11109 | -96.15602 | 38936 ft | 479 kts | 93° |
| 2026-05-05 03:52 | 22.10326 | -96.08513 | 38944 ft | 479 kts | 93° |
| 2026-05-05 03:53 | 22.09533 | -96.01357 | 38936 ft | 481 kts | 93° |
| 2026-05-05 03:53 | 22.08734 | -95.94181 | 38936 ft | 482 kts | 93° |
| 2026-05-05 03:54 | 22.07931 | -95.87004 | 38936 ft | 481 kts | 93° |
| 2026-05-05 03:54 | 22.07130 | -95.79879 | 38936 ft | 481 kts | 93° |
| 2026-05-05 03:55 | 22.06325 | -95.72738 | 38938 ft | 481 kts | 93° |
| 2026-05-05 03:55 | 22.05513 | -95.65562 | 38939 ft | 482 kts | 93° |
| 2026-05-05 03:56 | 22.04695 | -95.58370 | 38936 ft | 483 kts | 93° |
| 2026-05-05 03:56 | 22.03878 | -95.51212 | 38936 ft | 483 kts | 93° |
| 2026-05-05 03:57 | 22.03054 | -95.44030 | 38940 ft | 480 kts | 93° |
| 2026-05-05 03:57 | 22.02234 | -95.36901 | 38941 ft | 479 kts | 93° |
| 2026-05-05 03:58 | 22.01410 | -95.29764 | 38945 ft | 479 kts | 93° |
| 2026-05-05 03:58 | 22.00591 | -95.22686 | 38944 ft | 479 kts | 93° |
| 2026-05-05 03:59 | 21.99761 | -95.15550 | 38946 ft | 479 kts | 93° |
| 2026-05-05 03:59 | 21.98929 | -95.08412 | 38946 ft | 479 kts | 93° |
| 2026-05-05 04:00 | 21.98095 | -95.01293 | 38949 ft | 479 kts | 93° |
| 2026-05-05 04:00 | 21.97259 | -94.94170 | 38952 ft | 479 kts | 93° |
| 2026-05-05 04:01 | 21.96421 | -94.87041 | 38947 ft | 480 kts | 93° |
| 2026-05-05 04:01 | 21.95584 | -94.79953 | 38947 ft | 480 kts | 93° |
| 2026-05-05 04:02 | 21.94739 | -94.72824 | 38947 ft | 480 kts | 93° |
| 2026-05-05 04:02 | 21.93890 | -94.65693 | 38950 ft | 480 kts | 93° |
| 2026-05-05 04:03 | 21.93038 | -94.58562 | 38950 ft | 480 kts | 93° |
| 2026-05-05 04:03 | 21.92181 | -94.51416 | 38949 ft | 480 kts | 93° |
| 2026-05-05 04:04 | 21.91325 | -94.44300 | 38949 ft | 480 kts | 93° |
| 2026-05-05 04:04 | 21.90463 | -94.37168 | 38952 ft | 480 kts | 93° |
| 2026-05-05 04:05 | 21.89606 | -94.30092 | 38952 ft | 479 kts | 93° |
| 2026-05-05 04:05 | 21.88739 | -94.22970 | 38952 ft | 479 kts | 93° |
| 2026-05-05 04:06 | 21.87869 | -94.15842 | 38953 ft | 480 kts | 93° |
| 2026-05-05 04:06 | 21.86995 | -94.08710 | 38952 ft | 480 kts | 93° |
| 2026-05-05 04:07 | 21.86118 | -94.01588 | 38949 ft | 480 kts | 94° |
| 2026-05-05 04:07 | 21.85237 | -93.94453 | 38950 ft | 480 kts | 94° |
| 2026-05-05 04:08 | 21.84359 | -93.87361 | 38952 ft | 480 kts | 94° |
| 2026-05-05 04:08 | 21.83472 | -93.80229 | 38962 ft | 480 kts | 94° |
| 2026-05-05 04:09 | 21.82583 | -93.73103 | 38955 ft | 481 kts | 94° |
| 2026-05-05 04:09 | 21.81688 | -93.65961 | 38955 ft | 481 kts | 94° |
| 2026-05-05 04:10 | 21.80793 | -93.58838 | 38952 ft | 481 kts | 94° |
| 2026-05-05 04:10 | 21.79893 | -93.51703 | 38952 ft | 481 kts | 94° |
| 2026-05-05 04:11 | 21.78996 | -93.44615 | 38958 ft | 481 kts | 94° |
| 2026-05-05 04:11 | 21.78089 | -93.37476 | 38958 ft | 481 kts | 94° |
| 2026-05-05 04:12 | 21.77181 | -93.30350 | 38960 ft | 481 kts | 94° |
| 2026-05-05 04:12 | 21.76266 | -93.23207 | 38957 ft | 481 kts | 94° |
| 2026-05-05 04:13 | 21.75353 | -93.16091 | 38957 ft | 480 kts | 94° |
| 2026-05-05 04:13 | 21.74443 | -93.09016 | 38958 ft | 480 kts | 94° |
| 2026-05-05 04:14 | 21.73525 | -93.01913 | 38962 ft | 480 kts | 94° |
| 2026-05-05 04:14 | 21.72603 | -92.94798 | 38960 ft | 481 kts | 94° |
| 2026-05-05 04:15 | 21.71677 | -92.87681 | 38963 ft | 481 kts | 94° |
| 2026-05-05 04:15 | 21.70745 | -92.80551 | 38963 ft | 481 kts | 94° |
| 2026-05-05 04:16 | 21.69817 | -92.73469 | 38963 ft | 481 kts | 94° |
| 2026-05-05 04:16 | 21.68881 | -92.66343 | 38966 ft | 480 kts | 94° |
| 2026-05-05 04:17 | 21.67941 | -92.59219 | 38960 ft | 481 kts | 94° |
| 2026-05-05 04:17 | 21.66999 | -92.52096 | 38960 ft | 481 kts | 94° |
| 2026-05-05 04:18 | 21.66058 | -92.45017 | 38963 ft | 481 kts | 94° |
| 2026-05-05 04:18 | 21.65110 | -92.37900 | 38966 ft | 481 kts | 94° |
| 2026-05-05 04:19 | 21.64158 | -92.30778 | 38966 ft | 481 kts | 94° |
| 2026-05-05 04:19 | 21.63204 | -92.23663 | 38969 ft | 481 kts | 94° |
| 2026-05-05 04:20 | 21.62246 | -92.16541 | 38968 ft | 481 kts | 94° |
| 2026-05-05 04:20 | 21.61286 | -92.09433 | 38971 ft | 481 kts | 94° |
| 2026-05-05 04:21 | 21.60328 | -92.02361 | 38969 ft | 481 kts | 94° |
| 2026-05-05 04:21 | 21.59361 | -91.95245 | 38974 ft | 481 kts | 95° |
| 2026-05-05 04:22 | 21.58392 | -91.88131 | 38973 ft | 481 kts | 95° |
| 2026-05-05 04:22 | 21.57419 | -91.81022 | 38972 ft | 481 kts | 95° |
| 2026-05-05 04:23 | 21.56450 | -91.73955 | 38972 ft | 481 kts | 95° |
| 2026-05-05 04:23 | 21.55466 | -91.66811 | 38970 ft | 481 kts | 95° |
| 2026-05-05 04:24 | 21.54491 | -91.59752 | 38975 ft | 480 kts | 95° |
| 2026-05-05 04:25 | 21.53013 | -91.49089 | 38976 ft | 481 kts | 95° |
| 2026-05-05 04:25 | 21.52023 | -91.41972 | 38973 ft | 482 kts | 95° |
| 2026-05-05 04:26 | 21.51028 | -91.34845 | 38975 ft | 482 kts | 95° |
| 2026-05-05 04:26 | 21.50035 | -91.27763 | 38973 ft | 482 kts | 95° |
| 2026-05-05 04:27 | 21.49034 | -91.20636 | 38977 ft | 482 kts | 95° |
| 2026-05-05 04:27 | 21.48030 | -91.13513 | 38982 ft | 482 kts | 96° |
| 2026-05-05 04:28 | 21.47023 | -91.06390 | 38977 ft | 482 kts | 96° |
| 2026-05-05 04:28 | 21.46017 | -90.99298 | 38977 ft | 482 kts | 96° |
| 2026-05-05 04:29 | 21.45003 | -90.92178 | 38975 ft | 482 kts | 96° |
| 2026-05-05 04:29 | 21.43986 | -90.85053 | 38978 ft | 482 kts | 96° |
| 2026-05-05 04:30 | 21.42972 | -90.77970 | 38977 ft | 482 kts | 96° |
| 2026-05-05 04:30 | 21.41951 | -90.70858 | 38983 ft | 483 kts | 96° |
| 2026-05-05 04:31 | 21.40923 | -90.63720 | 38979 ft | 484 kts | 96° |
| 2026-05-05 04:31 | 21.39890 | -90.56576 | 38974 ft | 483 kts | 96° |
| 2026-05-05 04:32 | 21.38857 | -90.49450 | 38975 ft | 483 kts | 96° |
| 2026-05-05 04:32 | 21.37821 | -90.42321 | 38974 ft | 483 kts | 96° |
| 2026-05-05 04:33 | 21.36786 | -90.35231 | 38976 ft | 483 kts | 96° |
| 2026-05-05 04:33 | 21.35743 | -90.28099 | 38976 ft | 484 kts | 96° |
| 2026-05-05 04:34 | 21.34697 | -90.20968 | 38975 ft | 484 kts | 96° |
| 2026-05-05 04:34 | 21.33823 | -90.15028 | 38977 ft | 484 kts | 96° |
| 2026-05-05 04:35 | 21.32771 | -90.07897 | 38977 ft | 484 kts | 96° |
| 2026-05-05 04:35 | 21.31715 | -90.00761 | 38977 ft | 484 kts | 96° |
| 2026-05-05 04:36 | 21.30655 | -89.93623 | 38975 ft | 484 kts | 95° |
| 2026-05-05 04:36 | 21.29594 | -89.86495 | 38974 ft | 485 kts | 95° |
| 2026-05-05 04:37 | 21.28535 | -89.79396 | 38974 ft | 485 kts | 95° |
| 2026-05-05 04:37 | 21.27548 | -89.72262 | 38967 ft | 481 kts | 86° |
| 2026-05-05 04:38 | 21.27850 | -89.65160 | 38974 ft | 475 kts | 81° |
| 2026-05-05 04:38 | 21.28377 | -89.58087 | 38974 ft | 476 kts | 81° |
| 2026-05-05 04:39 | 21.28922 | -89.51008 | 38974 ft | 476 kts | 81° |
| 2026-05-05 04:39 | 21.29466 | -89.43929 | 38974 ft | 476 kts | 81° |
| 2026-05-05 04:40 | 21.30005 | -89.36891 | 38974 ft | 476 kts | 81° |
| 2026-05-05 04:40 | 21.30544 | -89.29817 | 38974 ft | 476 kts | 81° |
| 2026-05-05 04:41 | 21.31081 | -89.22739 | 38979 ft | 476 kts | 81° |
| 2026-05-05 04:41 | 21.31615 | -89.15656 | 38947 ft | 477 kts | 81° |
| 2026-05-05 04:41 | 21.31881 | -89.12108 | 38648 ft | 477 kts | 81° |
| 2026-05-05 04:42 | 21.32148 | -89.08550 | 37768 ft | 480 kts | 81° |
| 2026-05-05 04:42 | 21.32416 | -89.04968 | 36960 ft | 482 kts | 81° |
| 2026-05-05 04:42 | 21.32684 | -89.01375 | 36199 ft | 482 kts | 81° |
| 2026-05-05 04:42 | 21.32948 | -88.97804 | 35306 ft | 480 kts | 81° |
| 2026-05-05 04:43 | 21.33210 | -88.94247 | 34221 ft | 478 kts | 81° |
| 2026-05-05 04:43 | 21.33473 | -88.90687 | 32900 ft | 478 kts | 81° |
| 2026-05-05 04:43 | 21.33737 | -88.87114 | 31430 ft | 483 kts | 81° |
| 2026-05-05 04:43 | 21.33996 | -88.83584 | 30485 ft | 477 kts | 81° |
| 2026-05-05 04:44 | 21.34253 | -88.80049 | 29655 ft | 473 kts | 81° |
| 2026-05-05 04:44 | 21.34507 | -88.76549 | 29029 ft | 468 kts | 82° |
| 2026-05-05 04:44 | 21.34760 | -88.73071 | 28399 ft | 464 kts | 82° |
| 2026-05-05 04:44 | 21.35009 | -88.69639 | 27764 ft | 460 kts | 82° |
| 2026-05-05 04:45 | 21.35256 | -88.66225 | 27128 ft | 457 kts | 82° |
| 2026-05-05 04:45 | 21.35501 | -88.62832 | 26481 ft | 455 kts | 82° |
| 2026-05-05 04:45 | 21.35744 | -88.59456 | 25833 ft | 452 kts | 82° |
| 2026-05-05 04:45 | 21.35982 | -88.56138 | 25202 ft | 450 kts | 82° |
| 2026-05-05 04:46 | 21.36219 | -88.52819 | 24557 ft | 448 kts | 82° |
| 2026-05-05 04:46 | 21.36457 | -88.49496 | 23946 ft | 445 kts | 83° |
| 2026-05-05 04:46 | 21.36688 | -88.46228 | 23704 ft | 432 kts | 83° |
| 2026-05-05 04:46 | 21.36857 | -88.43040 | 23242 ft | 426 kts | 88° |
| 2026-05-05 04:47 | 21.36519 | -88.39864 | 22548 ft | 428 kts | 99° |
| 2026-05-05 04:47 | 21.35899 | -88.36759 | 21915 ft | 425 kts | 101° |
| 2026-05-05 04:47 | 21.35238 | -88.33689 | 21201 ft | 420 kts | 101° |
| 2026-05-05 04:47 | 21.34583 | -88.30654 | 20615 ft | 417 kts | 101° |
| 2026-05-05 04:48 | 21.33933 | -88.27625 | 20062 ft | 413 kts | 101° |
| 2026-05-05 04:48 | 21.33296 | -88.24636 | 19513 ft | 410 kts | 102° |
| 2026-05-05 04:48 | 21.32666 | -88.21670 | 18971 ft | 406 kts | 102° |
| 2026-05-05 04:48 | 21.32049 | -88.18762 | 18416 ft | 404 kts | 102° |
| 2026-05-05 04:49 | 21.31419 | -88.15792 | 17801 ft | 401 kts | 102° |
| 2026-05-05 04:49 | 21.30812 | -88.12931 | 17265 ft | 397 kts | 102° |
| 2026-05-05 04:49 | 21.30202 | -88.10058 | 16745 ft | 393 kts | 102° |
| 2026-05-05 04:49 | 21.29597 | -88.07224 | 16227 ft | 389 kts | 102° |
| 2026-05-05 04:50 | 21.28983 | -88.04411 | 15716 ft | 385 kts | 103° |
| 2026-05-05 04:50 | 21.28371 | -88.01623 | 15208 ft | 382 kts | 103° |
| 2026-05-05 04:50 | 21.27764 | -87.98864 | 14719 ft | 378 kts | 103° |
| 2026-05-05 04:50 | 21.27164 | -87.96137 | 14205 ft | 374 kts | 103° |
| 2026-05-05 04:51 | 21.26569 | -87.93433 | 13690 ft | 371 kts | 103° |
| 2026-05-05 04:51 | 21.25979 | -87.90758 | 13166 ft | 366 kts | 103° |
| 2026-05-05 04:51 | 21.25397 | -87.88117 | 12662 ft | 362 kts | 103° |
| 2026-05-05 04:51 | 21.24818 | -87.85493 | 12183 ft | 359 kts | 103° |
| 2026-05-05 04:52 | 21.24244 | -87.82893 | 11868 ft | 360 kts | 103° |
| 2026-05-05 04:52 | 21.23672 | -87.80303 | 11625 ft | 361 kts | 103° |
| 2026-05-05 04:52 | 21.23100 | -87.77717 | 11453 ft | 349 kts | 103° |
| 2026-05-05 04:52 | 21.22554 | -87.75250 | 11340 ft | 331 kts | 103° |
| 2026-05-05 04:53 | 21.22034 | -87.72902 | 11220 ft | 317 kts | 103° |
| 2026-05-05 04:53 | 21.21590 | -87.70604 | 11123 ft | 320 kts | 96° |
| 2026-05-05 04:53 | 21.21425 | -87.68115 | 11026 ft | 346 kts | 92° |
| 2026-05-05 04:53 | 21.21365 | -87.65497 | 10867 ft | 354 kts | 90° |
| 2026-05-05 04:54 | 21.21379 | -87.62855 | 10634 ft | 354 kts | 88° |
| 2026-05-05 04:54 | 21.21432 | -87.60227 | 10408 ft | 350 kts | 88° |
| 2026-05-05 04:54 | 21.21500 | -87.57627 | 10177 ft | 346 kts | 88° |
| 2026-05-05 04:54 | 21.21566 | -87.55086 | 9819 ft | 337 kts | 88° |
| 2026-05-05 04:55 | 21.21627 | -87.52614 | 9441 ft | 326 kts | 88° |
| 2026-05-05 04:55 | 21.21679 | -87.50268 | 9064 ft | 310 kts | 88° |
| 2026-05-05 04:55 | 21.21725 | -87.48008 | 8735 ft | 299 kts | 88° |
| 2026-05-05 04:55 | 21.21767 | -87.45779 | 8426 ft | 299 kts | 88° |
| 2026-05-05 04:56 | 21.21808 | -87.43556 | 8113 ft | 296 kts | 88° |
| 2026-05-05 04:56 | 21.21847 | -87.41364 | 7851 ft | 293 kts | 88° |
| 2026-05-05 04:56 | 21.21886 | -87.39181 | 7596 ft | 292 kts | 88° |
| 2026-05-05 04:56 | 21.21924 | -87.37007 | 7329 ft | 290 kts | 89° |
| 2026-05-05 04:57 | 21.21961 | -87.34850 | 7069 ft | 288 kts | 89° |
| 2026-05-05 04:57 | 21.21998 | -87.32731 | 6816 ft | 287 kts | 88° |
| 2026-05-05 04:57 | 21.22035 | -87.30604 | 6562 ft | 285 kts | 89° |
| 2026-05-05 04:57 | 21.22072 | -87.28489 | 6304 ft | 283 kts | 89° |
| 2026-05-05 04:58 | 21.22108 | -87.26388 | 6033 ft | 280 kts | 89° |
| 2026-05-05 04:58 | 21.22144 | -87.24302 | 5767 ft | 279 kts | 89° |
| 2026-05-05 04:58 | 21.22179 | -87.22254 | 5559 ft | 270 kts | 89° |
| 2026-05-05 04:58 | 21.22213 | -87.20270 | 5291 ft | 264 kts | 89° |
| 2026-05-05 04:59 | 21.22245 | -87.18297 | 4876 ft | 264 kts | 90° |
| 2026-05-05 04:59 | 21.22223 | -87.16473 | 4496 ft | 264 kts | 97° |
| 2026-05-05 04:59 | 21.21829 | -87.14568 | 4107 ft | 261 kts | 112° |
| 2026-05-05 04:59 | 21.20983 | -87.12854 | 3727 ft | 259 kts | 123° |
| 2026-05-05 05:00 | 21.20003 | -87.11236 | 3340 ft | 259 kts | 124° |
| 2026-05-05 05:00 | 21.19083 | -87.09789 | 2980 ft | 257 kts | 126° |
| 2026-05-05 05:00 | 21.18065 | -87.08242 | 2600 ft | 255 kts | 126° |
| 2026-05-05 05:00 | 21.17042 | -87.06702 | 2215 ft | 253 kts | 126° |
| 2026-05-05 05:01 | 21.16037 | -87.05159 | 1990 ft | 252 kts | 125° |
| 2026-05-05 05:01 | 21.15049 | -87.03595 | 1955 ft | 253 kts | 124° |
| 2026-05-05 05:01 | 21.14204 | -87.02224 | 1941 ft | 244 kts | 123° |
| 2026-05-05 05:01 | 21.13320 | -87.00769 | 1974 ft | 221 kts | 123° |
| 2026-05-05 05:02 | 21.12519 | -86.99457 | 1966 ft | 204 kts | 124° |
| 2026-05-05 05:02 | 21.11766 | -86.98239 | 1927 ft | 185 kts | 124° |
| 2026-05-05 05:02 | 21.11094 | -86.97164 | 1785 ft | 163 kts | 124° |
| 2026-05-05 05:02 | 21.10499 | -86.96216 | 1624 ft | 144 kts | 124° |
| 2026-05-05 05:03 | 21.09964 | -86.95359 | 1361 ft | 134 kts | 124° |
| 2026-05-05 05:03 | 21.09459 | -86.94547 | 1261 ft | 131 kts | 125° |
| 2026-05-05 05:03 | 21.08903 | -86.93653 | 1446 ft | 155 kts | 124° |
| 2026-05-05 05:03 | 21.08305 | -86.92688 | 1262 ft | 152 kts | 124° |
| 2026-05-05 05:04 | 21.07729 | -86.91768 | 933 ft | 146 kts | 125° |
| 2026-05-05 05:04 | 21.07179 | -86.90891 | 687 ft | 136 kts | 124° |
| 2026-05-05 05:04 | 21.06677 | -86.90065 | 424 ft | 128 kts | 123° |
| 2026-05-05 05:04 | 21.06182 | -86.89282 | 296 ft | 128 kts | 124° |
| 2026-05-05 05:05 | 21.05690 | -86.88486 | 132 ft | 129 kts | 124° |
| 2026-05-05 05:05 | 21.05208 | -86.87717 | 30 ft | 115 kts | 122° |
| 2026-05-05 05:05 | 21.04864 | -86.87165 | 29 ft | 62 kts | 123° |
| 2026-05-05 05:05 | 21.04683 | -86.86875 | 26 ft | 43 kts | 125° |
| 2026-05-05 05:06 | 21.04582 | -86.86714 | 29 ft | 19 kts | 123° |
| 2026-05-05 05:06 | 21.04511 | -86.86601 | 26 ft | 18 kts | 124° |
| 2026-05-05 05:06 | 21.04438 | -86.86497 | 28 ft | 16 kts | 134° |
| 2026-05-05 05:06 | 21.04358 | -86.86429 | 24 ft | 15 kts | 146° |
| 2026-05-05 05:07 | 21.04297 | -86.86390 | 22 ft | 6 kts | 151° |
| 2026-05-05 05:07 | 21.04257 | -86.86369 | 22 ft | 7 kts | 156° |
| 2026-05-05 05:07 | 21.04209 | -86.86345 | 22 ft | 8 kts | 153° |
| 2026-05-05 05:07 | 21.04155 | -86.86316 | 21 ft | 9 kts | 152° |
| 2026-05-05 05:08 | 21.04103 | -86.86276 | 22 ft | 10 kts | 131° |
| 2026-05-05 05:08 | 21.04081 | -86.86242 | 22 ft | 5 kts | 123° |
| 2026-05-05 05:08 | 21.04050 | -86.86220 | 20 ft | 6 kts | 171° |
| 2026-05-05 05:08 | 21.04010 | -86.86235 | 21 ft | 7 kts | 211° |
| 2026-05-05 05:09 | 21.03955 | -86.86274 | 21 ft | 11 kts | 214° |
| 2026-05-05 05:09 | 21.03892 | -86.86320 | 21 ft | 11 kts | 214° |
| 2026-05-05 05:09 | 21.03823 | -86.86369 | 21 ft | 12 kts | 214° |
| 2026-05-05 05:09 | 21.03749 | -86.86420 | 21 ft | 13 kts | 212° |
| 2026-05-05 05:10 | 21.03672 | -86.86475 | 21 ft | 9 kts | 214° |
| 2026-05-05 05:10 | 21.03624 | -86.86509 | 21 ft | 9 kts | 214° |
| 2026-05-05 05:10 | 21.03573 | -86.86547 | 21 ft | 9 kts | 223° |
| 2026-05-05 05:10 | 21.03574 | -86.86607 | 23 ft | 9 kts | 299° |
| 2026-05-05 05:11 | 21.03586 | -86.86670 | 21 ft | 7 kts | 277° |
| 2026-05-05 05:11 | 21.03605 | -86.86707 | 23 ft | 0 kts | 303° |
| 2026-05-05 05:11 | 21.03612 | -86.86718 | 22 ft | 3 kts | 304° |
| 2026-05-05 05:11 | 21.03625 | -86.86738 | 22 ft | 4 kts | 304° |
| 2026-05-05 05:12 | 21.03633 | -86.86751 | 22 ft | 0 kts | 304° |